sensor_id;sensor_type;location;lat;lon;timestamp;temperature;humidity
35531;DHT22;21637;53.352;-6.356;2023-03-01T00:02:21;6.30;99.90
35531;DHT22;21637;53.352;-6.356;2023-03-01T00:04:47;6.30;99.90
35531;DHT22;21637;53.352;-6.356;2023-03-01T00:07:13;6.30;99.90
35531;DHT22;21637;53.352;-6.356;2023-03-01T00:09:38;6.40;99.90
35531;DHT22;21637;53.352;-6.356;2023-03-01T00:12:06;6.40;99.90
35531;DHT22;21637;53.352;-6.356;2023-03-01T00:14:32;6.30;99.90
35531;DHT22;21637;53.352;-6.356;2023-03-01T00:16:58;6.40;99.90
35531;DHT22;21637;53.352;-6.356;2023-03-01T00:19:23;6.30;99.90
35531;DHT22;21637;53.352;-6.356;2023-03-01T00:21:49;6.30;99.90
35531;DHT22;21637;53.352;-6.356;2023-03-01T00:24:15;6.30;99.90
35531;DHT22;21637;53.352;-6.356;2023-03-01T00:26:41;6.30;99.90
35531;DHT22;21637;53.352;-6.356;2023-03-01T00:29:07;6.30;99.90
35531;DHT22;21637;53.352;-6.356;2023-03-01T00:31:33;6.30;99.90
35531;DHT22;21637;53.352;-6.356;2023-03-01T00:34:03;6.30;99.90
35531;DHT22;21637;53.352;-6.356;2023-03-01T00:36:31;6.30;99.90
35531;DHT22;21637;53.352;-6.356;2023-03-01T00:38:58;6.40;99.90
35531;DHT22;21637;53.352;-6.356;2023-03-01T00:41:24;6.30;99.90
35531;DHT22;21637;53.352;-6.356;2023-03-01T00:43:52;6.30;99.90
35531;DHT22;21637;53.352;-6.356;2023-03-01T00:46:24;6.40;99.90
35531;DHT22;21637;53.352;-6.356;2023-03-01T00:48:50;6.40;99.90
35531;DHT22;21637;53.352;-6.356;2023-03-01T00:51:20;6.40;99.90
35531;DHT22;21637;53.352;-6.356;2023-03-01T00:53:46;6.40;99.90
35531;DHT22;21637;53.352;-6.356;2023-03-01T00:56:13;6.50;99.90
35531;DHT22;21637;53.352;-6.356;2023-03-01T00:58:39;6.60;99.90
35531;DHT22;21637;53.352;-6.356;2023-03-01T01:01:17;6.80;99.90
35531;DHT22;21637;53.352;-6.356;2023-03-01T01:03:46;7.00;99.90
35531;DHT22;21637;53.352;-6.356;2023-03-01T01:06:17;7.20;99.90
35531;DHT22;21637;53.352;-6.356;2023-03-01T01:08:43;7.20;99.90
35531;DHT22;21637;53.352;-6.356;2023-03-01T01:11:10;7.20;99.90
35531;DHT22;21637;53.352;-6.356;2023-03-01T01:13:38;7.30;99.90
35531;DHT22;21637;53.352;-6.356;2023-03-01T01:16:04;7.30;99.90
35531;DHT22;21637;53.352;-6.356;2023-03-01T01:18:30;7.20;99.90
35531;DHT22;21637;53.352;-6.356;2023-03-01T01:20:56;7.20;99.90
35531;DHT22;21637;53.352;-6.356;2023-03-01T01:23:22;7.20;99.90
35531;DHT22;21637;53.352;-6.356;2023-03-01T01:25:47;7.20;99.90
35531;DHT22;21637;53.352;-6.356;2023-03-01T01:28:14;7.20;99.90
35531;DHT22;21637;53.352;-6.356;2023-03-01T01:30:40;7.20;99.90
35531;DHT22;21637;53.352;-6.356;2023-03-01T01:33:05;7.20;99.90
35531;DHT22;21637;53.352;-6.356;2023-03-01T01:35:31;7.20;99.90
35531;DHT22;21637;53.352;-6.356;2023-03-01T01:37:57;7.10;99.90
35531;DHT22;21637;53.352;-6.356;2023-03-01T01:40:22;7.20;99.90
35531;DHT22;21637;53.352;-6.356;2023-03-01T01:42:48;7.20;99.90
35531;DHT22;21637;53.352;-6.356;2023-03-01T01:45:34;7.10;99.90
35531;DHT22;21637;53.352;-6.356;2023-03-01T01:48:04;7.20;99.90
35531;DHT22;21637;53.352;-6.356;2023-03-01T01:50:33;7.20;99.90
35531;DHT22;21637;53.352;-6.356;2023-03-01T01:53:09;7.20;99.90
35531;DHT22;21637;53.352;-6.356;2023-03-01T01:55:37;7.10;99.90
35531;DHT22;21637;53.352;-6.356;2023-03-01T01:58:07;7.20;99.90
35531;DHT22;21637;53.352;-6.356;2023-03-01T02:00:34;7.20;99.90
35531;DHT22;21637;53.352;-6.356;2023-03-01T02:03:05;7.20;99.90
35531;DHT22;21637;53.352;-6.356;2023-03-01T02:08:19;7.20;99.90
35531;DHT22;21637;53.352;-6.356;2023-03-01T02:10:47;7.20;99.90
35531;DHT22;21637;53.352;-6.356;2023-03-01T02:13:13;7.20;99.90
35531;DHT22;21637;53.352;-6.356;2023-03-01T02:15:40;7.20;99.90
35531;DHT22;21637;53.352;-6.356;2023-03-01T02:18:09;7.20;99.90
35531;DHT22;21637;53.352;-6.356;2023-03-01T02:23:13;7.20;99.90
35531;DHT22;21637;53.352;-6.356;2023-03-01T02:26:21;7.20;99.90
35531;DHT22;21637;53.352;-6.356;2023-03-01T02:28:50;7.10;99.90
35531;DHT22;21637;53.352;-6.356;2023-03-01T02:31:19;7.10;99.90
35531;DHT22;21637;53.352;-6.356;2023-03-01T02:34:04;7.10;99.90
35531;DHT22;21637;53.352;-6.356;2023-03-01T02:36:47;7.10;99.90
35531;DHT22;21637;53.352;-6.356;2023-03-01T02:39:19;7.10;99.90
35531;DHT22;21637;53.352;-6.356;2023-03-01T02:41:50;7.10;99.90
35531;DHT22;21637;53.352;-6.356;2023-03-01T02:44:16;7.10;99.90
35531;DHT22;21637;53.352;-6.356;2023-03-01T02:46:45;7.10;99.90
35531;DHT22;21637;53.352;-6.356;2023-03-01T02:49:26;7.00;99.90
35531;DHT22;21637;53.352;-6.356;2023-03-01T02:52:21;7.10;99.90
35531;DHT22;21637;53.352;-6.356;2023-03-01T02:57:29;7.10;99.90
35531;DHT22;21637;53.352;-6.356;2023-03-01T02:59:57;7.10;99.90
35531;DHT22;21637;53.352;-6.356;2023-03-01T03:02:29;7.10;99.90
35531;DHT22;21637;53.352;-6.356;2023-03-01T03:05:09;7.10;99.90
35531;DHT22;21637;53.352;-6.356;2023-03-01T03:07:38;7.10;99.90
35531;DHT22;21637;53.352;-6.356;2023-03-01T03:10:07;7.10;99.90
35531;DHT22;21637;53.352;-6.356;2023-03-01T03:12:33;7.10;99.90
35531;DHT22;21637;53.352;-6.356;2023-03-01T03:14:58;7.10;99.90
35531;DHT22;21637;53.352;-6.356;2023-03-01T03:17:24;7.10;99.90
35531;DHT22;21637;53.352;-6.356;2023-03-01T03:19:50;7.10;99.90
35531;DHT22;21637;53.352;-6.356;2023-03-01T03:22:16;7.20;99.90
35531;DHT22;21637;53.352;-6.356;2023-03-01T03:24:42;7.20;99.90
35531;DHT22;21637;53.352;-6.356;2023-03-01T03:27:07;7.20;99.90
35531;DHT22;21637;53.352;-6.356;2023-03-01T03:29:34;7.10;99.90
35531;DHT22;21637;53.352;-6.356;2023-03-01T03:31:59;7.10;99.90
35531;DHT22;21637;53.352;-6.356;2023-03-01T03:34:25;7.10;99.90
35531;DHT22;21637;53.352;-6.356;2023-03-01T03:36:55;7.10;99.90
35531;DHT22;21637;53.352;-6.356;2023-03-01T03:39:25;7.10;99.90
35531;DHT22;21637;53.352;-6.356;2023-03-01T03:41:52;7.10;99.90
35531;DHT22;21637;53.352;-6.356;2023-03-01T03:44:19;7.00;99.90
35531;DHT22;21637;53.352;-6.356;2023-03-01T03:46:44;7.10;99.90
35531;DHT22;21637;53.352;-6.356;2023-03-01T03:49:10;7.00;99.90
35531;DHT22;21637;53.352;-6.356;2023-03-01T03:51:36;7.00;99.90
35531;DHT22;21637;53.352;-6.356;2023-03-01T03:54:01;7.00;99.90
35531;DHT22;21637;53.352;-6.356;2023-03-01T03:56:27;7.00;99.90
35531;DHT22;21637;53.352;-6.356;2023-03-01T03:58:53;7.00;99.90
35531;DHT22;21637;53.352;-6.356;2023-03-01T04:01:19;6.90;99.90
35531;DHT22;21637;53.352;-6.356;2023-03-01T04:03:44;6.90;99.90
35531;DHT22;21637;53.352;-6.356;2023-03-01T04:06:14;6.90;99.90
35531;DHT22;21637;53.352;-6.356;2023-03-01T04:08:40;6.90;99.90
35531;DHT22;21637;53.352;-6.356;2023-03-01T04:11:06;6.90;99.90
35531;DHT22;21637;53.352;-6.356;2023-03-01T04:13:52;6.90;99.90
35531;DHT22;21637;53.352;-6.356;2023-03-01T04:16:18;6.90;99.90
35531;DHT22;21637;53.352;-6.356;2023-03-01T04:18:45;6.80;99.90
35531;DHT22;21637;53.352;-6.356;2023-03-01T04:21:11;6.80;99.90
35531;DHT22;21637;53.352;-6.356;2023-03-01T04:23:37;6.90;99.90
35531;DHT22;21637;53.352;-6.356;2023-03-01T04:26:03;6.90;99.90
35531;DHT22;21637;53.352;-6.356;2023-03-01T04:28:35;6.80;99.90
35531;DHT22;21637;53.352;-6.356;2023-03-01T04:31:07;6.80;99.90
35531;DHT22;21637;53.352;-6.356;2023-03-01T04:33:55;6.90;99.90
35531;DHT22;21637;53.352;-6.356;2023-03-01T04:36:24;6.90;99.90
35531;DHT22;21637;53.352;-6.356;2023-03-01T04:38:50;6.90;99.90
35531;DHT22;21637;53.352;-6.356;2023-03-01T04:41:18;6.90;99.90
35531;DHT22;21637;53.352;-6.356;2023-03-01T04:43:45;6.90;99.90
35531;DHT22;21637;53.352;-6.356;2023-03-01T04:46:12;6.80;99.90
35531;DHT22;21637;53.352;-6.356;2023-03-01T04:48:39;6.80;99.90
35531;DHT22;21637;53.352;-6.356;2023-03-01T04:51:06;6.80;99.90
35531;DHT22;21637;53.352;-6.356;2023-03-01T04:53:33;6.80;99.90
35531;DHT22;21637;53.352;-6.356;2023-03-01T04:55:59;6.80;99.90
35531;DHT22;21637;53.352;-6.356;2023-03-01T04:58:26;6.80;99.90
35531;DHT22;21637;53.352;-6.356;2023-03-01T05:00:53;6.80;99.90
35531;DHT22;21637;53.352;-6.356;2023-03-01T05:03:19;6.80;99.90
35531;DHT22;21637;53.352;-6.356;2023-03-01T05:05:49;6.80;99.90
35531;DHT22;21637;53.352;-6.356;2023-03-01T05:08:15;6.80;99.90
35531;DHT22;21637;53.352;-6.356;2023-03-01T05:10:46;6.80;99.90
35531;DHT22;21637;53.352;-6.356;2023-03-01T05:13:13;6.80;99.90
35531;DHT22;21637;53.352;-6.356;2023-03-01T05:15:40;6.80;99.90
35531;DHT22;21637;53.352;-6.356;2023-03-01T05:18:06;6.80;99.90
35531;DHT22;21637;53.352;-6.356;2023-03-01T05:20:37;6.80;99.90
35531;DHT22;21637;53.352;-6.356;2023-03-01T05:23:03;6.80;99.90
35531;DHT22;21637;53.352;-6.356;2023-03-01T05:25:31;6.80;99.90
35531;DHT22;21637;53.352;-6.356;2023-03-01T05:28:02;6.80;99.90
35531;DHT22;21637;53.352;-6.356;2023-03-01T05:30:35;6.70;99.90
35531;DHT22;21637;53.352;-6.356;2023-03-01T05:33:01;6.80;99.90
35531;DHT22;21637;53.352;-6.356;2023-03-01T05:35:26;6.80;99.90
35531;DHT22;21637;53.352;-6.356;2023-03-01T05:37:53;6.80;99.90
35531;DHT22;21637;53.352;-6.356;2023-03-01T05:40:21;6.80;99.90
35531;DHT22;21637;53.352;-6.356;2023-03-01T05:42:52;6.80;99.90
35531;DHT22;21637;53.352;-6.356;2023-03-01T05:45:20;6.80;99.90
35531;DHT22;21637;53.352;-6.356;2023-03-01T05:47:47;6.80;99.90
35531;DHT22;21637;53.352;-6.356;2023-03-01T05:50:16;6.80;99.90
35531;DHT22;21637;53.352;-6.356;2023-03-01T05:52:49;6.80;99.90
35531;DHT22;21637;53.352;-6.356;2023-03-01T05:55:17;6.80;99.90
35531;DHT22;21637;53.352;-6.356;2023-03-01T05:57:43;6.80;99.90
35531;DHT22;21637;53.352;-6.356;2023-03-01T06:00:10;6.80;99.90
35531;DHT22;21637;53.352;-6.356;2023-03-01T06:02:36;6.80;99.90
35531;DHT22;21637;53.352;-6.356;2023-03-01T06:05:02;6.80;99.90
35531;DHT22;21637;53.352;-6.356;2023-03-01T06:07:28;6.80;99.90
35531;DHT22;21637;53.352;-6.356;2023-03-01T06:09:53;6.70;99.90
35531;DHT22;21637;53.352;-6.356;2023-03-01T06:12:19;6.70;99.90
35531;DHT22;21637;53.352;-6.356;2023-03-01T06:14:45;6.70;99.90
35531;DHT22;21637;53.352;-6.356;2023-03-01T06:17:12;6.70;99.90
35531;DHT22;21637;53.352;-6.356;2023-03-01T06:19:38;6.70;99.90
35531;DHT22;21637;53.352;-6.356;2023-03-01T06:22:04;6.70;99.90
35531;DHT22;21637;53.352;-6.356;2023-03-01T06:24:29;6.70;99.90
35531;DHT22;21637;53.352;-6.356;2023-03-01T06:26:55;6.60;99.90
35531;DHT22;21637;53.352;-6.356;2023-03-01T06:29:21;6.60;99.90
35531;DHT22;21637;53.352;-6.356;2023-03-01T06:31:48;6.60;99.90
35531;DHT22;21637;53.352;-6.356;2023-03-01T06:34:14;6.60;99.90
35531;DHT22;21637;53.352;-6.356;2023-03-01T06:36:40;6.60;99.90
35531;DHT22;21637;53.352;-6.356;2023-03-01T06:39:06;6.60;99.90
35531;DHT22;21637;53.352;-6.356;2023-03-01T06:41:32;6.60;99.90
35531;DHT22;21637;53.352;-6.356;2023-03-01T06:43:59;6.60;99.90
35531;DHT22;21637;53.352;-6.356;2023-03-01T06:46:25;6.60;99.90
35531;DHT22;21637;53.352;-6.356;2023-03-01T06:48:51;6.60;99.90
35531;DHT22;21637;53.352;-6.356;2023-03-01T06:51:17;6.70;99.90
35531;DHT22;21637;53.352;-6.356;2023-03-01T06:53:42;6.60;99.90
35531;DHT22;21637;53.352;-6.356;2023-03-01T06:56:08;6.60;99.90
35531;DHT22;21637;53.352;-6.356;2023-03-01T06:58:34;6.60;99.90
35531;DHT22;21637;53.352;-6.356;2023-03-01T07:00:59;6.60;99.90
35531;DHT22;21637;53.352;-6.356;2023-03-01T07:03:25;6.70;99.90
35531;DHT22;21637;53.352;-6.356;2023-03-01T07:05:51;6.70;99.90
35531;DHT22;21637;53.352;-6.356;2023-03-01T07:08:18;6.70;99.90
35531;DHT22;21637;53.352;-6.356;2023-03-01T07:10:44;6.70;99.90
35531;DHT22;21637;53.352;-6.356;2023-03-01T07:13:10;6.70;99.90
35531;DHT22;21637;53.352;-6.356;2023-03-01T07:15:36;6.70;99.90
35531;DHT22;21637;53.352;-6.356;2023-03-01T07:18:02;6.80;99.90
35531;DHT22;21637;53.352;-6.356;2023-03-01T07:20:27;6.70;99.90
35531;DHT22;21637;53.352;-6.356;2023-03-01T07:22:55;6.70;99.90
35531;DHT22;21637;53.352;-6.356;2023-03-01T07:25:24;6.70;99.90
35531;DHT22;21637;53.352;-6.356;2023-03-01T07:27:53;6.70;99.90
35531;DHT22;21637;53.352;-6.356;2023-03-01T07:30:20;6.70;99.90
35531;DHT22;21637;53.352;-6.356;2023-03-01T07:32:46;6.70;99.90
35531;DHT22;21637;53.352;-6.356;2023-03-01T07:35:12;6.80;99.90
35531;DHT22;21637;53.352;-6.356;2023-03-01T07:37:37;6.80;99.90
35531;DHT22;21637;53.352;-6.356;2023-03-01T07:40:03;6.70;99.90
35531;DHT22;21637;53.352;-6.356;2023-03-01T07:42:29;6.80;99.90
35531;DHT22;21637;53.352;-6.356;2023-03-01T07:44:55;6.80;99.90
35531;DHT22;21637;53.352;-6.356;2023-03-01T07:47:21;6.80;99.90
35531;DHT22;21637;53.352;-6.356;2023-03-01T07:49:46;6.80;99.90
35531;DHT22;21637;53.352;-6.356;2023-03-01T07:52:12;6.80;99.90
35531;DHT22;21637;53.352;-6.356;2023-03-01T07:54:38;6.80;99.90
35531;DHT22;21637;53.352;-6.356;2023-03-01T07:57:04;6.80;99.90
35531;DHT22;21637;53.352;-6.356;2023-03-01T07:59:30;6.80;99.90
35531;DHT22;21637;53.352;-6.356;2023-03-01T08:01:56;6.80;99.90
35531;DHT22;21637;53.352;-6.356;2023-03-01T08:04:22;6.90;99.90
35531;DHT22;21637;53.352;-6.356;2023-03-01T08:06:50;6.90;99.90
35531;DHT22;21637;53.352;-6.356;2023-03-01T08:09:16;6.90;99.90
35531;DHT22;21637;53.352;-6.356;2023-03-01T08:11:42;6.90;99.90
35531;DHT22;21637;53.352;-6.356;2023-03-01T08:14:08;6.90;99.90
35531;DHT22;21637;53.352;-6.356;2023-03-01T08:16:33;6.90;99.90
35531;DHT22;21637;53.352;-6.356;2023-03-01T08:19:11;6.90;99.90
35531;DHT22;21637;53.352;-6.356;2023-03-01T08:21:37;6.90;99.90
35531;DHT22;21637;53.352;-6.356;2023-03-01T08:24:05;6.90;99.90
35531;DHT22;21637;53.352;-6.356;2023-03-01T08:26:31;6.90;99.90
35531;DHT22;21637;53.352;-6.356;2023-03-01T08:28:57;6.90;99.90
35531;DHT22;21637;53.352;-6.356;2023-03-01T08:31:36;6.90;99.90
35531;DHT22;21637;53.352;-6.356;2023-03-01T08:34:05;6.90;99.90
35531;DHT22;21637;53.352;-6.356;2023-03-01T08:36:42;6.90;99.90
35531;DHT22;21637;53.352;-6.356;2023-03-01T08:39:10;6.90;99.90
35531;DHT22;21637;53.352;-6.356;2023-03-01T08:41:36;6.90;99.90
35531;DHT22;21637;53.352;-6.356;2023-03-01T08:44:03;6.90;99.90
35531;DHT22;21637;53.352;-6.356;2023-03-01T08:46:31;6.90;99.90
35531;DHT22;21637;53.352;-6.356;2023-03-01T08:48:57;6.90;99.90
35531;DHT22;21637;53.352;-6.356;2023-03-01T08:51:24;6.80;99.90
35531;DHT22;21637;53.352;-6.356;2023-03-01T08:53:50;6.80;99.90
35531;DHT22;21637;53.352;-6.356;2023-03-01T08:56:17;6.90;99.90
35531;DHT22;21637;53.352;-6.356;2023-03-01T08:58:48;6.90;99.90
35531;DHT22;21637;53.352;-6.356;2023-03-01T09:01:16;6.90;99.90
35531;DHT22;21637;53.352;-6.356;2023-03-01T09:03:43;6.90;99.90
35531;DHT22;21637;53.352;-6.356;2023-03-01T09:06:09;6.90;99.90
35531;DHT22;21637;53.352;-6.356;2023-03-01T09:08:40;7.00;99.90
35531;DHT22;21637;53.352;-6.356;2023-03-01T09:11:08;7.00;99.90
35531;DHT22;21637;53.352;-6.356;2023-03-01T09:13:35;7.00;99.90
35531;DHT22;21637;53.352;-6.356;2023-03-01T09:16:03;7.10;99.90
35531;DHT22;21637;53.352;-6.356;2023-03-01T09:18:29;7.10;99.90
35531;DHT22;21637;53.352;-6.356;2023-03-01T09:21:05;7.10;99.90
35531;DHT22;21637;53.352;-6.356;2023-03-01T09:23:37;7.10;99.90
35531;DHT22;21637;53.352;-6.356;2023-03-01T09:26:17;7.20;99.90
35531;DHT22;21637;53.352;-6.356;2023-03-01T09:28:45;7.20;99.90
35531;DHT22;21637;53.352;-6.356;2023-03-01T09:31:11;7.20;99.90
35531;DHT22;21637;53.352;-6.356;2023-03-01T09:33:41;7.20;99.90
35531;DHT22;21637;53.352;-6.356;2023-03-01T09:36:12;7.20;99.90
35531;DHT22;21637;53.352;-6.356;2023-03-01T09:38:37;7.00;99.90
35531;DHT22;21637;53.352;-6.356;2023-03-01T09:44:01;7.00;99.90
35531;DHT22;21637;53.352;-6.356;2023-03-01T09:46:40;7.10;99.90
35531;DHT22;21637;53.352;-6.356;2023-03-01T09:49:14;7.20;99.90
35531;DHT22;21637;53.352;-6.356;2023-03-01T09:51:43;7.30;99.90
35531;DHT22;21637;53.352;-6.356;2023-03-01T09:54:14;7.30;99.90
35531;DHT22;21637;53.352;-6.356;2023-03-01T09:56:44;7.30;99.90
35531;DHT22;21637;53.352;-6.356;2023-03-01T10:09:51;7.20;99.90
35531;DHT22;21637;53.352;-6.356;2023-03-01T10:12:23;7.20;99.90
35531;DHT22;21637;53.352;-6.356;2023-03-01T10:14:59;7.30;99.90
35531;DHT22;21637;53.352;-6.356;2023-03-01T10:22:39;7.30;99.90
35531;DHT22;21637;53.352;-6.356;2023-03-01T10:25:05;7.30;99.90
35531;DHT22;21637;53.352;-6.356;2023-03-01T10:30:32;7.20;99.90
35531;DHT22;21637;53.352;-6.356;2023-03-01T10:33:00;7.20;99.90
35531;DHT22;21637;53.352;-6.356;2023-03-01T10:35:31;7.10;99.90
35531;DHT22;21637;53.352;-6.356;2023-03-01T10:38:04;7.20;99.90
35531;DHT22;21637;53.352;-6.356;2023-03-01T10:40:31;7.20;99.90
35531;DHT22;21637;53.352;-6.356;2023-03-01T10:42:58;7.20;99.90
35531;DHT22;21637;53.352;-6.356;2023-03-01T10:45:38;7.10;99.90
35531;DHT22;21637;53.352;-6.356;2023-03-01T10:48:12;7.20;99.90
35531;DHT22;21637;53.352;-6.356;2023-03-01T10:50:43;7.30;99.90
35531;DHT22;21637;53.352;-6.356;2023-03-01T10:53:27;7.40;99.90
35531;DHT22;21637;53.352;-6.356;2023-03-01T10:56:03;7.50;99.90
35531;DHT22;21637;53.352;-6.356;2023-03-01T10:58:31;7.60;99.90
35531;DHT22;21637;53.352;-6.356;2023-03-01T11:03:43;7.80;99.90
35531;DHT22;21637;53.352;-6.356;2023-03-01T11:08:48;8.00;99.90
35531;DHT22;21637;53.352;-6.356;2023-03-01T11:11:19;8.10;99.90
35531;DHT22;21637;53.352;-6.356;2023-03-01T11:16:25;8.20;99.90
35531;DHT22;21637;53.352;-6.356;2023-03-01T11:24:14;8.00;99.90
35531;DHT22;21637;53.352;-6.356;2023-03-01T11:26:44;8.00;99.90
35531;DHT22;21637;53.352;-6.356;2023-03-01T11:29:33;8.10;99.90
35531;DHT22;21637;53.352;-6.356;2023-03-01T11:32:06;8.20;99.90
35531;DHT22;21637;53.352;-6.356;2023-03-01T11:34:42;8.30;99.90
35531;DHT22;21637;53.352;-6.356;2023-03-01T11:42:19;8.20;99.90
35531;DHT22;21637;53.352;-6.356;2023-03-01T11:44:52;8.10;99.90
35531;DHT22;21637;53.352;-6.356;2023-03-01T11:50:29;8.20;99.90
35531;DHT22;21637;53.352;-6.356;2023-03-01T11:58:50;8.20;99.90
35531;DHT22;21637;53.352;-6.356;2023-03-01T12:26:48;8.10;99.90
35531;DHT22;21637;53.352;-6.356;2023-03-01T12:29:31;8.20;99.90
35531;DHT22;21637;53.352;-6.356;2023-03-01T12:51:24;8.50;99.90
35531;DHT22;21637;53.352;-6.356;2023-03-01T12:53:53;8.60;99.90
35531;DHT22;21637;53.352;-6.356;2023-03-01T12:56:32;8.60;99.90
35531;DHT22;21637;53.352;-6.356;2023-03-01T13:01:51;8.60;99.90
35531;DHT22;21637;53.352;-6.356;2023-03-01T13:18:27;8.50;99.90
35531;DHT22;21637;53.352;-6.356;2023-03-01T13:20:53;8.50;99.90
35531;DHT22;21637;53.352;-6.356;2023-03-01T13:33:57;8.80;99.90
35531;DHT22;21637;53.352;-6.356;2023-03-01T13:44:26;8.70;99.90
35531;DHT22;21637;53.352;-6.356;2023-03-01T13:47:03;8.70;99.90
35531;DHT22;21637;53.352;-6.356;2023-03-01T13:49:41;8.60;99.90
35531;DHT22;21637;53.352;-6.356;2023-03-01T13:54:59;8.40;99.90
35531;DHT22;21637;53.352;-6.356;2023-03-01T13:57:33;8.40;99.90
35531;DHT22;21637;53.352;-6.356;2023-03-01T13:59:59;8.50;99.90
35531;DHT22;21637;53.352;-6.356;2023-03-01T14:02:25;8.70;99.90
35531;DHT22;21637;53.352;-6.356;2023-03-01T14:04:58;8.70;99.90
35531;DHT22;21637;53.352;-6.356;2023-03-01T14:07:25;8.70;99.90
35531;DHT22;21637;53.352;-6.356;2023-03-01T14:10:00;8.50;99.90
35531;DHT22;21637;53.352;-6.356;2023-03-01T14:12:46;8.40;99.90
35531;DHT22;21637;53.352;-6.356;2023-03-01T14:15:19;8.40;99.90
35531;DHT22;21637;53.352;-6.356;2023-03-01T14:18:12;8.40;99.90
35531;DHT22;21637;53.352;-6.356;2023-03-01T14:20:42;8.40;99.90
35531;DHT22;21637;53.352;-6.356;2023-03-01T14:23:17;8.20;99.90
35531;DHT22;21637;53.352;-6.356;2023-03-01T14:25:47;8.20;99.90
35531;DHT22;21637;53.352;-6.356;2023-03-01T14:28:19;8.20;99.90
35531;DHT22;21637;53.352;-6.356;2023-03-01T14:30:48;8.10;99.90
35531;DHT22;21637;53.352;-6.356;2023-03-01T14:33:34;8.00;99.90
35531;DHT22;21637;53.352;-6.356;2023-03-01T14:38:41;8.20;99.90
35531;DHT22;21637;53.352;-6.356;2023-03-01T14:41:16;8.20;99.90
35531;DHT22;21637;53.352;-6.356;2023-03-01T14:43:58;8.20;99.90
35531;DHT22;21637;53.352;-6.356;2023-03-01T14:46:38;8.40;99.90
35531;DHT22;21637;53.352;-6.356;2023-03-01T14:49:12;8.50;99.90
35531;DHT22;21637;53.352;-6.356;2023-03-01T14:51:41;8.60;99.90
35531;DHT22;21637;53.352;-6.356;2023-03-01T14:56:53;8.60;99.90
35531;DHT22;21637;53.352;-6.356;2023-03-01T14:59:22;8.60;99.90
35531;DHT22;21637;53.352;-6.356;2023-03-01T15:01:53;8.70;99.90
35531;DHT22;21637;53.352;-6.356;2023-03-01T15:04:21;8.60;99.90
35531;DHT22;21637;53.352;-6.356;2023-03-01T15:06:51;8.40;99.90
35531;DHT22;21637;53.352;-6.356;2023-03-01T15:09:17;8.30;99.90
35531;DHT22;21637;53.352;-6.356;2023-03-01T15:11:43;8.40;99.90
35531;DHT22;21637;53.352;-6.356;2023-03-01T15:14:43;8.50;99.90
35531;DHT22;21637;53.352;-6.356;2023-03-01T15:17:34;8.60;99.90
35531;DHT22;21637;53.352;-6.356;2023-03-01T15:20:03;8.50;99.90
35531;DHT22;21637;53.352;-6.356;2023-03-01T15:22:29;8.30;99.90
35531;DHT22;21637;53.352;-6.356;2023-03-01T15:24:55;8.20;99.90
35531;DHT22;21637;53.352;-6.356;2023-03-01T15:27:25;8.20;99.90
35531;DHT22;21637;53.352;-6.356;2023-03-01T15:32:28;8.10;99.90
35531;DHT22;21637;53.352;-6.356;2023-03-01T15:34:56;7.90;99.90
35531;DHT22;21637;53.352;-6.356;2023-03-01T15:37:49;8.00;99.90
35531;DHT22;21637;53.352;-6.356;2023-03-01T15:40:24;8.10;99.90
35531;DHT22;21637;53.352;-6.356;2023-03-01T15:42:57;8.20;99.90
35531;DHT22;21637;53.352;-6.356;2023-03-01T15:45:27;8.30;99.90
35531;DHT22;21637;53.352;-6.356;2023-03-01T15:48:14;8.40;99.90
35531;DHT22;21637;53.352;-6.356;2023-03-01T15:50:41;8.30;99.90
35531;DHT22;21637;53.352;-6.356;2023-03-01T15:53:13;8.20;99.90
35531;DHT22;21637;53.352;-6.356;2023-03-01T15:55:41;8.20;99.90
35531;DHT22;21637;53.352;-6.356;2023-03-01T15:58:13;8.20;99.90
35531;DHT22;21637;53.352;-6.356;2023-03-01T16:00:39;8.10;99.90
35531;DHT22;21637;53.352;-6.356;2023-03-01T16:03:05;8.00;99.90
35531;DHT22;21637;53.352;-6.356;2023-03-01T16:05:33;8.00;99.90
35531;DHT22;21637;53.352;-6.356;2023-03-01T16:08:03;7.90;99.90
35531;DHT22;21637;53.352;-6.356;2023-03-01T16:10:30;7.70;99.90
35531;DHT22;21637;53.352;-6.356;2023-03-01T16:12:56;7.70;99.90
35531;DHT22;21637;53.352;-6.356;2023-03-01T16:15:31;7.70;99.90
35531;DHT22;21637;53.352;-6.356;2023-03-01T16:17:57;7.70;99.90
35531;DHT22;21637;53.352;-6.356;2023-03-01T16:20:27;7.70;99.90
35531;DHT22;21637;53.352;-6.356;2023-03-01T16:22:53;7.70;99.90
35531;DHT22;21637;53.352;-6.356;2023-03-01T16:25:20;7.70;99.90
35531;DHT22;21637;53.352;-6.356;2023-03-01T16:27:47;7.80;99.90
35531;DHT22;21637;53.352;-6.356;2023-03-01T16:30:15;7.80;99.90
35531;DHT22;21637;53.352;-6.356;2023-03-01T16:32:42;7.80;99.90
35531;DHT22;21637;53.352;-6.356;2023-03-01T16:35:10;7.80;99.90
35531;DHT22;21637;53.352;-6.356;2023-03-01T16:37:37;7.90;99.90
35531;DHT22;21637;53.352;-6.356;2023-03-01T16:40:04;7.90;99.90
35531;DHT22;21637;53.352;-6.356;2023-03-01T16:42:34;7.90;99.90
35531;DHT22;21637;53.352;-6.356;2023-03-01T16:45:00;8.00;99.90
35531;DHT22;21637;53.352;-6.356;2023-03-01T16:47:27;8.00;99.90
35531;DHT22;21637;53.352;-6.356;2023-03-01T16:49:54;8.10;99.90
35531;DHT22;21637;53.352;-6.356;2023-03-01T16:52:20;8.10;99.90
35531;DHT22;21637;53.352;-6.356;2023-03-01T16:54:46;8.20;99.90
35531;DHT22;21637;53.352;-6.356;2023-03-01T16:57:14;8.10;99.90
35531;DHT22;21637;53.352;-6.356;2023-03-01T16:59:40;8.10;99.90
35531;DHT22;21637;53.352;-6.356;2023-03-01T17:02:12;8.00;99.90
35531;DHT22;21637;53.352;-6.356;2023-03-01T17:04:39;8.00;99.90
35531;DHT22;21637;53.352;-6.356;2023-03-01T17:07:05;8.10;99.90
35531;DHT22;21637;53.352;-6.356;2023-03-01T17:09:35;8.00;99.90
35531;DHT22;21637;53.352;-6.356;2023-03-01T17:12:02;7.90;99.90
35531;DHT22;21637;53.352;-6.356;2023-03-01T17:14:27;7.90;99.90
35531;DHT22;21637;53.352;-6.356;2023-03-01T17:16:54;7.90;99.90
35531;DHT22;21637;53.352;-6.356;2023-03-01T17:19:20;7.80;99.90
35531;DHT22;21637;53.352;-6.356;2023-03-01T17:21:46;7.70;99.90
35531;DHT22;21637;53.352;-6.356;2023-03-01T17:24:12;7.80;99.90
35531;DHT22;21637;53.352;-6.356;2023-03-01T17:26:39;7.70;99.90
35531;DHT22;21637;53.352;-6.356;2023-03-01T17:29:05;7.70;99.90
35531;DHT22;21637;53.352;-6.356;2023-03-01T17:31:32;7.60;99.90
35531;DHT22;21637;53.352;-6.356;2023-03-01T17:33:58;7.60;99.90
35531;DHT22;21637;53.352;-6.356;2023-03-01T17:36:24;7.50;99.90
35531;DHT22;21637;53.352;-6.356;2023-03-01T17:38:50;7.40;99.90
35531;DHT22;21637;53.352;-6.356;2023-03-01T17:41:17;7.40;99.90
35531;DHT22;21637;53.352;-6.356;2023-03-01T17:43:46;7.40;99.90
35531;DHT22;21637;53.352;-6.356;2023-03-01T17:46:13;7.30;99.90
35531;DHT22;21637;53.352;-6.356;2023-03-01T17:48:38;7.30;99.90
35531;DHT22;21637;53.352;-6.356;2023-03-01T17:51:08;7.30;99.90
35531;DHT22;21637;53.352;-6.356;2023-03-01T17:53:36;7.30;99.90
35531;DHT22;21637;53.352;-6.356;2023-03-01T17:56:04;7.30;99.90
35531;DHT22;21637;53.352;-6.356;2023-03-01T17:58:31;7.30;99.90
35531;DHT22;21637;53.352;-6.356;2023-03-01T18:03:35;7.30;99.90
35531;DHT22;21637;53.352;-6.356;2023-03-01T18:06:01;7.30;99.90
35531;DHT22;21637;53.352;-6.356;2023-03-01T18:08:26;7.30;99.90
35531;DHT22;21637;53.352;-6.356;2023-03-01T18:10:58;7.30;99.90
35531;DHT22;21637;53.352;-6.356;2023-03-01T18:13:24;7.20;99.90